Time;durP1;ratioP1;P1;durP2;ratioP2;P2;SDS_P1;SDS_P2;PMS_P1;PMS_P2;Temp;Humidity;BMP_temperature;BMP_pressure;BME280_temperature;BME280_humidity;BME280_pressure;Samples;Min_cycle;Max_cycle;Signal;HPM_P1;HPM_P2
2021/05/31 00:02:10;;;;;;;5.53;3.07;;;12.10;99.90;;;;;;5071642;28;20516;-53
2021/05/31 00:04:37;;;;;;;7.37;3.80;;;12.00;99.90;;;;;;5071396;28;20957;-53
2021/05/31 00:07:05;;;;;;;5.93;3.87;;;12.00;99.90;;;;;;5071077;28;20516;-53
2021/05/31 00:09:34;;;;;;;5.10;3.80;;;11.90;99.90;;;;;;5071403;28;20454;-53
2021/05/31 00:12:01;;;;;;;5.57;3.30;;;11.90;99.90;;;;;;5071745;28;20449;-53
2021/05/31 00:14:28;;;;;;;5.00;3.70;;;11.90;99.90;;;;;;5074952;28;20454;-53
2021/05/31 00:16:55;;;;;;;5.97;4.00;;;11.90;99.90;;;;;;5075486;28;20858;-53
2021/05/31 00:19:22;;;;;;;4.77;4.27;;;11.90;99.90;;;;;;5075244;28;20469;-53
2021/05/31 00:21:50;;;;;;;4.40;3.30;;;11.70;99.90;;;;;;5075346;28;20446;-53
2021/05/31 00:24:17;;;;;;;4.43;3.63;;;11.80;99.90;;;;;;5075207;28;20446;-53
2021/05/31 00:26:44;;;;;;;4.57;3.47;;;11.80;99.90;;;;;;5075259;28;20458;-53
2021/05/31 00:29:10;;;;;;;5.00;3.43;;;11.80;99.90;;;;;;5074912;28;21024;-53
2021/05/31 00:31:38;;;;;;;8.33;4.13;;;11.70;99.90;;;;;;5074918;28;20442;-53
2021/05/31 00:34:04;;;;;;;4.83;4.10;;;11.60;99.90;;;;;;5074852;28;20493;-53
2021/05/31 00:36:31;;;;;;;5.13;4.00;;;11.60;99.90;;;;;;5075086;28;20455;-53
2021/05/31 00:38:58;;;;;;;6.07;3.67;;;11.40;99.90;;;;;;5075152;28;20522;-53
2021/05/31 00:41:25;;;;;;;5.97;3.90;;;11.40;99.90;;;;;;5074814;28;21219;-53
2021/05/31 00:43:51;;;;;;;5.57;4.10;;;11.40;99.90;;;;;;5074929;28;20470;-52
2021/05/31 00:46:18;;;;;;;6.77;3.67;;;11.40;99.90;;;;;;5074516;28;20453;-53
2021/05/31 00:48:45;;;;;;;5.47;4.07;;;11.40;99.90;;;;;;5075025;28;20478;-53
2021/05/31 00:51:13;;;;;;;4.40;3.10;;;11.30;99.90;;;;;;5074944;28;20959;-53
2021/05/31 00:53:40;;;;;;;4.60;3.80;;;11.30;99.90;;;;;;5075170;28;20466;-53
2021/05/31 00:56:07;;;;;;;5.67;4.00;;;11.20;99.90;;;;;;5074940;28;20993;-53
2021/05/31 00:58:36;;;;;;;4.63;3.63;;;11.10;99.90;;;;;;5075546;28;20439;-53
2021/05/31 01:01:05;;;;;;;6.90;3.93;;;11.10;99.90;;;;;;5078372;28;20451;-53
2021/05/31 01:03:31;;;;;;;5.80;4.20;;;11.00;99.90;;;;;;5089761;28;20470;-53
2021/05/31 01:06:01;;;;;;;5.60;3.20;;;10.90;99.90;;;;;;5089017;28;20447;-53
2021/05/31 01:08:33;;;;;;;4.57;3.70;;;11.00;99.90;;;;;;5088963;28;20482;-53
2021/05/31 01:11:03;;;;;;;5.43;3.80;;;10.90;99.90;;;;;;5069101;28;20451;-53
2021/05/31 01:13:42;;;;;;;4.70;3.57;;;10.80;99.90;;;;;;5069412;28;20467;-53
2021/05/31 01:16:13;;;;;;;7.30;3.90;;;10.80;99.90;;;;;;5086456;28;20453;-53
2021/05/31 01:18:45;;;;;;;7.20;4.47;;;10.70;99.90;;;;;;5078518;28;20514;-53
2021/05/31 01:21:23;;;;;;;6.37;4.30;;;10.70;99.90;;;;;;5074207;28;20456;-53
2021/05/31 01:23:57;;;;;;;7.07;4.50;;;10.70;99.90;;;;;;5073557;28;20473;-53
2021/05/31 01:26:26;;;;;;;6.60;4.70;;;10.40;99.90;;;;;;5073484;28;20967;-53
2021/05/31 01:29:00;;;;;;;6.07;4.60;;;10.40;99.90;;;;;;5073827;28;20478;-53
2021/05/31 01:31:35;;;;;;;8.13;4.00;;;10.20;99.90;;;;;;5074119;28;20455;-53
2021/05/31 01:34:04;;;;;;;7.70;4.47;;;10.30;99.90;;;;;;5073769;28;20485;-53
2021/05/31 01:36:34;;;;;;;6.50;4.13;;;10.40;99.90;;;;;;5073111;28;20451;-53
2021/05/31 01:39:02;;;;;;;14.17;4.53;;;10.50;99.90;;;;;;5073734;28;20447;-53
2021/05/31 01:41:29;;;;;;;6.73;4.13;;;10.50;99.90;;;;;;5073986;28;20449;-53
2021/05/31 01:43:58;;;;;;;7.13;4.70;;;10.50;99.90;;;;;;5073369;28;20466;-53
2021/05/31 01:46:25;;;;;;;4.77;3.60;;;10.50;99.90;;;;;;5073438;28;20451;-53
2021/05/31 01:48:53;;;;;;;5.30;3.90;;;10.50;99.90;;;;;;5073577;28;21021;-53
2021/05/31 01:51:21;;;;;;;6.23;3.97;;;10.50;99.90;;;;;;5072986;28;20475;-53
2021/05/31 01:53:48;;;;;;;4.20;3.40;;;10.40;99.90;;;;;;5073287;28;20474;-53
2021/05/31 01:56:16;;;;;;;6.03;3.87;;;10.40;99.90;;;;;;5073407;28;20458;-53
2021/05/31 01:58:44;;;;;;;6.97;4.13;;;10.40;99.90;;;;;;5073457;28;20485;-53
2021/05/31 02:01:12;;;;;;;6.47;5.13;;;10.30;99.90;;;;;;5073597;28;20488;-53
2021/05/31 02:03:42;;;;;;;7.53;3.97;;;10.30;99.90;;;;;;5072456;28;21055;-53
2021/05/31 02:06:10;;;;;;;7.83;4.27;;;10.20;99.90;;;;;;5072653;28;20866;-53
2021/05/31 02:08:37;;;;;;;5.27;4.00;;;10.30;99.90;;;;;;5073097;28;20485;-53
2021/05/31 02:11:14;;;;;;;8.13;4.50;;;10.30;99.90;;;;;;5073399;28;20837;-53
2021/05/31 02:13:47;;;;;;;7.37;4.10;;;10.10;99.90;;;;;;5073074;28;20560;-53
2021/05/31 02:16:22;;;;;;;5.40;3.93;;;10.00;99.90;;;;;;5053119;28;20538;-53
2021/05/31 02:18:51;;;;;;;7.23;4.60;;;10.00;99.90;;;;;;5068212;28;20446;-53
2021/05/31 02:21:21;;;;;;;6.47;4.27;;;10.10;99.90;;;;;;5073349;28;20454;-52
2021/05/31 02:23:49;;;;;;;5.90;3.70;;;10.10;99.90;;;;;;5072457;28;20474;-53
2021/05/31 02:26:17;;;;;;;5.83;4.00;;;10.00;99.90;;;;;;5072643;28;20455;-53
2021/05/31 02:28:48;;;;;;;6.10;3.83;;;10.00;99.90;;;;;;5072837;28;20896;-53
2021/05/31 02:31:17;;;;;;;7.53;4.60;;;10.00;99.90;;;;;;5072148;28;20470;-53
2021/05/31 02:33:45;;;;;;;5.83;3.80;;;10.10;99.90;;;;;;5072545;28;20847;-52
2021/05/31 02:36:12;;;;;;;7.50;4.07;;;10.10;99.90;;;;;;5071957;28;20450;-53
2021/05/31 02:38:38;;;;;;;7.93;4.07;;;10.10;99.90;;;;;;5072576;28;20446;-52
2021/05/31 02:41:05;;;;;;;8.20;4.30;;;10.10;99.90;;;;;;5072664;28;20539;-53
2021/05/31 02:43:31;;;;;;;7.23;4.40;;;10.00;99.90;;;;;;5072341;28;20976;-52
2021/05/31 02:45:58;;;;;;;6.13;4.40;;;9.80;99.90;;;;;;5071516;28;20511;-52
2021/05/31 02:48:26;;;;;;;6.70;3.73;;;9.90;99.90;;;;;;5072031;28;20482;-53
2021/05/31 02:50:56;;;;;;;6.17;4.70;;;9.90;99.90;;;;;;5072640;28;20556;-52
2021/05/31 02:53:22;;;;;;;9.57;4.00;;;9.90;99.90;;;;;;5072322;28;20502;-53
2021/05/31 02:55:49;;;;;;;8.70;4.07;;;9.80;99.90;;;;;;5071897;28;20457;-53
2021/05/31 02:58:15;;;;;;;5.10;4.00;;;9.80;99.90;;;;;;5072203;28;20520;-53
2021/05/31 03:00:42;;;;;;;7.53;4.80;;;9.60;99.90;;;;;;5071987;28;20956;-53
2021/05/31 03:03:09;;;;;;;5.63;4.00;;;9.40;99.90;;;;;;5089060;22;20988;-49
2021/05/31 03:05:38;;;;;;;6.90;4.70;;;9.50;99.90;;;;;;5051023;28;20491;-50
2021/05/31 03:08:05;;;;;;;6.23;4.20;;;9.50;99.90;;;;;;5052043;28;20557;-50
2021/05/31 03:10:32;;;;;;;6.77;4.87;;;9.50;99.90;;;;;;5052053;28;20450;-50
2021/05/31 03:13:00;;;;;;;6.63;4.40;;;9.50;99.90;;;;;;5057053;28;20467;-50
2021/05/31 03:15:27;;;;;;;5.13;4.13;;;9.50;99.90;;;;;;5071062;28;20457;-49
2021/05/31 03:17:54;;;;;;;5.70;4.03;;;9.60;99.90;;;;;;5071834;28;20450;-49
2021/05/31 03:20:23;;;;;;;7.67;4.47;;;9.60;99.90;;;;;;5071967;28;20458;-49
2021/05/31 03:22:52;;;;;;;6.23;4.40;;;9.60;99.90;;;;;;5071443;28;20464;-49
2021/05/31 03:25:19;;;;;;;5.43;4.10;;;9.50;99.90;;;;;;5051538;28;20925;-50
2021/05/31 03:27:46;;;;;;;5.37;3.97;;;9.50;99.90;;;;;;5064683;28;20485;-49
2021/05/31 03:30:14;;;;;;;6.20;4.60;;;9.40;99.90;;;;;;5071659;28;20942;-49
2021/05/31 03:32:42;;;;;;;7.70;4.60;;;9.30;99.90;;;;;;5071602;28;20478;-49
2021/05/31 03:35:10;;;;;;;5.43;4.40;;;9.30;99.90;;;;;;5070743;28;20458;-50
2021/05/31 03:37:37;;;;;;;7.47;4.67;;;9.40;99.90;;;;;;5071725;28;20543;-49
2021/05/31 03:40:07;;;;;;;5.97;4.23;;;9.20;99.90;;;;;;5071471;28;20460;-49
2021/05/31 03:42:34;;;;;;;10.10;4.40;;;9.20;99.90;;;;;;5063054;28;20450;-49
2021/05/31 03:45:01;;;;;;;7.67;4.47;;;9.30;99.90;;;;;;5071106;28;20453;-49
2021/05/31 03:47:27;;;;;;;6.00;4.17;;;9.30;99.90;;;;;;5069921;28;20461;-50
2021/05/31 03:49:54;;;;;;;9.57;4.47;;;9.30;99.90;;;;;;5071209;28;20453;-49
2021/05/31 03:52:20;;;;;;;5.50;3.93;;;9.30;99.90;;;;;;5071431;28;20448;-49
2021/05/31 03:54:47;;;;;;;12.27;4.70;;;9.30;99.90;;;;;;5071259;28;20812;-50
2021/05/31 03:57:15;;;;;;;10.53;4.80;;;9.40;99.90;;;;;;5054888;28;20444;-49
2021/05/31 03:59:42;;;;;;;6.70;4.73;;;9.40;99.90;;;;;;5051482;28;20442;-49
2021/05/31 04:02:08;;;;;;;6.60;4.57;;;9.10;99.90;;;;;;5052885;28;20437;-50
2021/05/31 04:04:40;;;;;;;7.80;4.87;;;8.80;99.90;;;;;;5064801;28;20474;-49
2021/05/31 04:12:38;;;;;;;8.50;4.70;;;9.20;99.90;;;;;;5069496;28;20428;-49
2021/05/31 04:15:06;;;;;;;8.27;5.70;;;9.40;99.90;;;;;;5070465;28;20448;-49
2021/05/31 04:17:32;;;;;;;16.30;11.20;;;9.60;99.90;;;;;;5056200;28;20500;-50
2021/05/31 04:19:59;;;;;;;8.73;7.23;;;9.60;99.90;;;;;;5065132;28;20450;-49
2021/05/31 04:22:25;;;;;;;13.00;8.90;;;9.70;99.90;;;;;;5070947;28;20448;-49
2021/05/31 04:24:52;;;;;;;10.73;7.80;;;9.80;99.90;;;;;;5070437;28;20449;-50
2021/05/31 04:27:18;;;;;;;9.53;6.90;;;9.90;99.90;;;;;;5070375;28;20971;-49
2021/05/31 04:29:47;;;;;;;10.60;5.97;;;10.10;99.90;;;;;;5069973;28;20488;-49
2021/05/31 04:32:14;;;;;;;7.60;4.90;;;10.20;99.90;;;;;;5068208;28;20458;-48
2021/05/31 04:34:40;;;;;;;7.13;4.47;;;10.30;99.90;;;;;;5070248;28;20527;-48
2021/05/31 04:37:07;;;;;;;6.60;4.13;;;10.40;99.90;;;;;;5070506;28;20454;-49
2021/05/31 04:39:33;;;;;;;7.67;4.80;;;10.60;99.90;;;;;;5070246;28;20504;-49
2021/05/31 04:42:00;;;;;;;6.33;4.10;;;10.70;99.90;;;;;;5070290;28;20461;-48
2021/05/31 04:44:26;;;;;;;5.10;4.07;;;10.80;99.90;;;;;;5069549;28;20850;-49
2021/05/31 04:46:54;;;;;;;5.83;4.80;;;10.80;99.90;;;;;;5069280;28;20451;-49
2021/05/31 04:49:21;;;;;;;8.87;4.27;;;10.90;99.90;;;;;;5068770;28;20540;-49
2021/05/31 04:51:47;;;;;;;5.93;4.33;;;11.10;99.90;;;;;;5069114;28;20464;-49
2021/05/31 04:54:14;;;;;;;7.03;4.30;;;11.00;99.90;;;;;;5068784;28;20469;-49
2021/05/31 04:56:41;;;;;;;8.97;4.27;;;11.00;99.90;;;;;;5069158;28;20447;-49
2021/05/31 04:59:07;;;;;;;5.80;4.00;;;11.50;99.90;;;;;;5068424;28;20538;-49
2021/05/31 05:01:34;;;;;;;6.60;4.37;;;12.60;99.90;;;;;;5071474;28;20459;-49
2021/05/31 05:04:04;;;;;;;8.80;4.37;;;13.40;99.90;;;;;;5071888;28;21053;-49
2021/05/31 05:06:30;;;;;;;6.93;3.60;;;14.40;99.90;;;;;;5072472;28;20991;-49
2021/05/31 05:08:57;;;;;;;5.67;3.23;;;15.10;99.90;;;;;;5072271;28;20471;-50
2021/05/31 05:11:24;;;;;;;3.80;3.20;;;15.80;99.90;;;;;;5071931;28;20820;-49
2021/05/31 05:13:52;;;;;;;11.03;3.57;;;16.30;99.90;;;;;;5058627;28;20922;-50
2021/05/31 05:16:18;;;;;;;3.67;3.27;;;17.40;99.90;;;;;;5060206;28;20527;-50
2021/05/31 05:18:45;;;;;;;3.90;3.50;;;18.50;99.90;;;;;;5072984;28;20445;-49
2021/05/31 05:21:16;;;;;;;9.10;3.43;;;19.00;97.90;;;;;;5072725;28;20439;-50
2021/05/31 05:23:44;;;;;;;4.43;3.40;;;19.80;96.70;;;;;;5068577;28;20505;-50
2021/05/31 05:26:11;;;;;;;3.50;3.20;;;20.30;94.60;;;;;;5057844;28;20810;-50
2021/05/31 05:28:38;;;;;;;3.63;3.23;;;20.50;92.60;;;;;;5053648;28;21148;-49
2021/05/31 05:31:07;;;;;;;4.80;3.10;;;20.00;93.40;;;;;;5067520;28;20443;-51
2021/05/31 05:33:35;;;;;;;7.43;4.10;;;20.10;92.80;;;;;;5068622;28;20918;-52
2021/05/31 05:36:09;;;;;;;5.77;3.90;;;20.60;92.50;;;;;;5071063;28;20457;-51
2021/05/31 05:41:34;;;;;;;3.20;2.90;;;20.40;92.50;;;;;;5067819;28;20434;-51
2021/05/31 05:46:46;;;;;;;4.30;3.90;;;21.10;91.20;;;;;;5030286;28;20445;-51
2021/05/31 05:49:13;;;;;;;4.73;3.73;;;21.00;90.40;;;;;;5065462;28;20482;-51
2021/05/31 05:51:39;;;;;;;4.30;3.10;;;21.70;89.40;;;;;;5072744;28;20492;-51
2021/05/31 05:54:08;;;;;;;3.87;3.57;;;21.50;88.00;;;;;;5071168;28;20490;-50
2021/05/31 05:56:34;;;;;;;4.33;3.90;;;22.00;87.60;;;;;;5062721;28;20505;-51
2021/05/31 05:59:01;;;;;;;4.30;3.63;;;22.00;88.00;;;;;;5060307;28;20443;-52
2021/05/31 06:01:29;;;;;;;5.93;3.83;;;21.70;87.70;;;;;;5071478;28;20489;-51
2021/05/31 06:03:57;;;;;;;3.50;3.20;;;21.10;88.00;;;;;;5069669;28;20498;-51
2021/05/31 06:06:26;;;;;;;4.03;3.63;;;20.80;87.40;;;;;;5071827;28;20451;-51
2021/05/31 06:08:52;;;;;;;4.20;3.80;;;20.80;90.00;;;;;;5071887;28;20509;-51
2021/05/31 06:11:21;;;;;;;3.70;3.13;;;21.40;89.40;;;;;;5071640;28;20866;-52
2021/05/31 06:13:52;;;;;;;4.60;3.80;;;22.00;86.60;;;;;;5068300;28;20478;-52
2021/05/31 06:16:18;;;;;;;7.73;3.80;;;21.30;87.10;;;;;;5070770;28;20542;-51
2021/05/31 06:18:45;;;;;;;5.17;4.00;;;21.40;90.20;;;;;;5057546;28;20820;-52
2021/05/31 06:21:12;;;;;;;5.03;4.17;;;21.80;87.00;;;;;;5053106;28;20448;-52
2021/05/31 06:23:38;;;;;;;4.73;4.10;;;22.60;85.10;;;;;;5054427;28;20464;-52
2021/05/31 06:26:05;;;;;;;4.27;3.87;;;22.00;85.60;;;;;;5068095;28;20468;-51
2021/05/31 06:28:33;;;;;;;4.53;4.13;;;22.80;84.70;;;;;;5071938;28;20498;-52
2021/05/31 06:30:59;;;;;;;7.70;4.17;;;22.50;85.30;;;;;;5071963;28;20450;-52
2021/05/31 06:33:26;;;;;;;6.03;3.90;;;22.40;84.50;;;;;;5069607;28;20487;-51
2021/05/31 06:35:54;;;;;;;4.30;3.90;;;22.70;82.80;;;;;;5064646;28;20443;-51
2021/05/31 06:38:21;;;;;;;6.43;3.77;;;22.80;83.80;;;;;;5072074;28;20469;-52
2021/05/31 06:40:47;;;;;;;9.93;3.87;;;23.30;81.80;;;;;;5071100;28;20488;-52
2021/05/31 06:43:14;;;;;;;5.30;4.30;;;22.80;83.20;;;;;;5071126;28;20475;-52
2021/05/31 06:45:42;;;;;;;4.30;3.90;;;22.50;87.40;;;;;;5070894;28;20497;-51
2021/05/31 06:48:10;;;;;;;4.57;4.17;;;23.30;83.60;;;;;;5071459;28;20474;-51
2021/05/31 06:50:37;;;;;;;4.20;3.80;;;22.00;90.20;;;;;;5071057;28;20452;-52
2021/05/31 06:53:04;;;;;;;5.07;4.43;;;22.40;88.00;;;;;;5070935;28;20466;-51
2021/05/31 06:55:31;;;;;;;6.23;4.60;;;22.20;88.30;;;;;;5071164;28;20455;-50
2021/05/31 06:57:57;;;;;;;6.03;4.77;;;22.30;88.10;;;;;;5071677;28;20542;-51
2021/05/31 07:00:26;;;;;;;4.77;4.37;;;22.90;85.60;;;;;;5071684;28;20538;-51
2021/05/31 07:02:54;;;;;;;4.80;3.90;;;23.40;85.30;;;;;;5070626;28;20890;-52
2021/05/31 07:05:21;;;;;;;7.87;4.47;;;22.40;88.40;;;;;;5071083;28;20443;-52
2021/05/31 07:07:48;;;;;;;7.50;4.30;;;21.80;90.10;;;;;;5071363;28;20479;-52
2021/05/31 07:10:17;;;;;;;6.57;4.33;;;22.80;89.80;;;;;;5070706;28;20967;-52
2021/05/31 07:12:45;;;;;;;5.13;4.13;;;23.40;89.20;;;;;;5070801;28;20474;-51
2021/05/31 07:15:13;;;;;;;4.97;3.87;;;23.80;87.10;;;;;;5071188;28;20451;-51
2021/05/31 07:17:41;;;;;;;4.00;3.50;;;22.60;89.40;;;;;;5071115;28;20475;-52
2021/05/31 07:20:11;;;;;;;8.63;3.83;;;22.80;85.50;;;;;;5066182;28;20452;-52
2021/05/31 07:22:38;;;;;;;4.70;4.23;;;23.10;86.20;;;;;;5073019;28;21717;-51
2021/05/31 07:25:06;;;;;;;4.80;4.17;;;21.80;91.00;;;;;;5070667;28;20450;-52
2021/05/31 07:27:33;;;;;;;4.93;4.13;;;21.60;90.00;;;;;;5071484;28;20447;-51
2021/05/31 07:30:00;;;;;;;5.00;4.30;;;21.80;88.80;;;;;;5069408;28;20490;-50
2021/05/31 07:32:27;;;;;;;5.23;4.20;;;21.80;89.10;;;;;;5062359;28;20469;-51
2021/05/31 07:34:53;;;;;;;4.93;4.20;;;22.20;88.70;;;;;;5051602;28;20448;-51
2021/05/31 07:37:21;;;;;;;5.37;4.33;;;22.60;87.60;;;;;;5070161;28;20447;-51
2021/05/31 07:39:48;;;;;;;8.53;4.13;;;22.70;90.00;;;;;;5071941;28;20442;-51
2021/05/31 07:42:14;;;;;;;5.73;4.00;;;21.50;91.60;;;;;;5071904;28;20492;-51
2021/05/31 07:44:41;;;;;;;8.83;4.60;;;22.50;91.10;;;;;;5071171;28;20984;-52
2021/05/31 07:47:07;;;;;;;4.70;4.03;;;22.80;88.20;;;;;;5071734;28;20834;-51
2021/05/31 07:49:34;;;;;;;8.83;4.63;;;22.70;89.30;;;;;;5063105;28;20475;-52
2021/05/31 07:52:08;;;;;;;5.60;4.67;;;22.70;90.80;;;;;;5051482;28;20447;-51
2021/05/31 07:54:36;;;;;;;5.60;4.33;;;20.70;91.80;;;;;;5051548;28;20531;-51
2021/05/31 07:57:03;;;;;;;6.93;4.40;;;20.60;92.10;;;;;;5051948;28;20466;-51
2021/05/31 07:59:29;;;;;;;5.23;4.60;;;21.60;92.20;;;;;;5051623;28;20448;-51
2021/05/31 08:01:56;;;;;;;4.80;4.17;;;22.30;90.50;;;;;;5055315;28;20446;-51
2021/05/31 08:04:22;;;;;;;6.90;4.80;;;22.50;89.00;;;;;;5071031;28;20561;-51
2021/05/31 08:06:49;;;;;;;6.37;4.00;;;22.50;90.50;;;;;;5071272;28;20459;-51
2021/05/31 08:09:15;;;;;;;7.30;4.97;;;21.40;90.20;;;;;;5070817;28;20479;-51
2021/05/31 08:11:43;;;;;;;5.33;4.13;;;20.80;92.10;;;;;;5070157;28;20835;-51
2021/05/31 08:14:10;;;;;;;5.23;4.20;;;22.00;90.00;;;;;;5070295;28;20473;-52
2021/05/31 08:16:36;;;;;;;4.27;3.70;;;22.60;88.10;;;;;;5070692;28;20451;-51
2021/05/31 08:19:03;;;;;;;5.20;3.87;;;21.80;89.50;;;;;;5070919;28;20496;-51
2021/05/31 08:21:29;;;;;;;4.40;3.90;;;22.40;88.40;;;;;;5071458;28;20476;-52
2021/05/31 08:23:57;;;;;;;6.07;4.10;;;23.20;86.10;;;;;;5070829;28;20466;-50
2021/05/31 08:26:24;;;;;;;5.63;4.17;;;23.30;86.90;;;;;;5071268;28;20541;-51
2021/05/31 08:28:56;;;;;;;6.87;4.10;;;23.20;87.60;;;;;;5070618;28;20481;-51
2021/05/31 08:31:23;;;;;;;4.27;3.87;;;23.10;86.50;;;;;;5071221;28;20454;-51
2021/05/31 08:33:50;;;;;;;4.37;3.97;;;23.50;84.40;;;;;;5070833;28;20983;-52
2021/05/31 08:36:18;;;;;;;4.50;4.00;;;23.90;82.90;;;;;;5075234;28;20454;-52
2021/05/31 08:38:44;;;;;;;7.93;4.40;;;24.20;83.70;;;;;;5055004;28;20452;-52
2021/05/31 08:41:10;;;;;;;5.60;4.33;;;22.50;84.70;;;;;;5054881;28;20474;-51
2021/05/31 08:43:37;;;;;;;6.30;4.67;;;22.20;90.00;;;;;;5054724;28;20478;-51
2021/05/31 08:46:05;;;;;;;5.87;4.00;;;22.00;89.00;;;;;;5054551;28;20871;-51
2021/05/31 08:48:32;;;;;;;5.63;4.37;;;21.20;90.40;;;;;;5070042;28;20532;-51
2021/05/31 08:50:59;;;;;;;4.43;3.77;;;21.40;88.70;;;;;;5074767;28;20443;-51
2021/05/31 08:53:25;;;;;;;4.27;3.87;;;21.50;87.00;;;;;;5074699;28;20818;-51
2021/05/31 08:55:52;;;;;;;4.90;3.80;;;22.10;89.10;;;;;;5074025;28;20454;-51
2021/05/31 08:58:19;;;;;;;6.43;3.90;;;22.70;89.20;;;;;;5074643;28;20939;-51
2021/05/31 09:00:45;;;;;;;3.83;3.37;;;22.00;88.10;;;;;;5074587;28;20446;-52
2021/05/31 09:03:13;;;;;;;6.00;4.03;;;21.20;86.30;;;;;;5074092;28;20482;-51
2021/05/31 09:08:09;;;;;;;3.77;3.30;;;20.70;85.40;;;;;;5051349;28;20487;-54
2021/05/31 09:10:39;;;;;;;6.43;3.90;;;21.70;83.80;;;;;;5054341;28;20940;-55
2021/05/31 09:13:06;;;;;;;4.27;3.30;;;21.40;85.40;;;;;;5054088;28;20447;-55
2021/05/31 09:15:32;;;;;;;4.17;3.40;;;22.20;86.90;;;;;;5050072;28;20988;-55
2021/05/31 09:17:59;;;;;;;3.40;3.10;;;21.90;83.30;;;;;;5053295;28;20486;-56
2021/05/31 09:20:27;;;;;;;3.77;2.77;;;21.90;84.40;;;;;;5052825;28;20448;-55
2021/05/31 09:22:56;;;;;;;3.53;3.23;;;21.70;85.00;;;;;;5050811;28;20444;-56
2021/05/31 09:25:33;;;;;;;3.00;2.70;;;21.80;85.20;;;;;;5053155;28;20518;-56
2021/05/31 09:28:03;;;;;;;5.17;2.90;;;22.30;86.10;;;;;;5052527;28;20494;-56
2021/05/31 09:30:38;;;;;;;3.57;2.90;;;22.50;82.80;;;;;;5053301;28;20435;-56
2021/05/31 09:33:08;;;;;;;3.27;2.80;;;22.80;82.30;;;;;;5053118;28;20466;-56
2021/05/31 09:35:39;;;;;;;3.10;2.90;;;22.80;83.60;;;;;;5049677;28;20451;-56
2021/05/31 09:38:06;;;;;;;3.90;3.00;;;23.60;76.70;;;;;;5053300;28;20501;-56
2021/05/31 09:40:32;;;;;;;3.30;3.00;;;22.50;83.10;;;;;;5053137;28;20478;-56
2021/05/31 09:43:01;;;;;;;4.10;3.10;;;22.60;78.40;;;;;;5053196;28;20621;-55
2021/05/31 09:45:29;;;;;;;5.43;3.60;;;22.60;78.90;;;;;;5052393;28;20451;-56
2021/05/31 09:48:00;;;;;;;4.63;3.10;;;23.20;83.60;;;;;;5053079;28;20490;-55
2021/05/31 09:50:28;;;;;;;3.80;3.13;;;22.70;82.00;;;;;;5053050;28;20511;-56
2021/05/31 09:53:07;;;;;;;3.57;3.27;;;23.60;75.80;;;;;;5052921;28;20513;-56
2021/05/31 09:55:36;;;;;;;6.17;2.90;;;24.60;79.70;;;;;;5050943;28;20451;-55
2021/05/31 09:58:07;;;;;;;5.33;3.07;;;23.00;76.20;;;;;;5052425;28;20464;-55
2021/05/31 10:00:33;;;;;;;3.40;3.10;;;23.10;80.40;;;;;;5052802;28;20486;-56
2021/05/31 10:03:31;;;;;;;5.57;3.30;;;24.20;75.20;;;;;;5052726;28;20964;-56
2021/05/31 10:06:05;;;;;;;3.03;2.73;;;24.50;75.50;;;;;;5052402;28;20462;-56
2021/05/31 10:08:43;;;;;;;3.60;3.20;;;23.20;76.70;;;;;;5052633;28;20487;-55
2021/05/31 10:11:11;;;;;;;4.90;3.37;;;23.00;80.70;;;;;;5052663;28;20996;-56
2021/05/31 10:13:41;;;;;;;3.57;3.27;;;23.60;80.20;;;;;;5052635;28;20531;-56
2021/05/31 10:16:08;;;;;;;3.30;2.97;;;23.90;78.30;;;;;;5052084;28;20494;-56
2021/05/31 10:18:40;;;;;;;4.03;3.07;;;24.10;73.80;;;;;;5052362;28;20463;-56
2021/05/31 10:21:08;;;;;;;3.40;3.10;;;23.40;79.70;;;;;;5052724;28;20539;-56
2021/05/31 10:23:36;;;;;;;5.30;3.10;;;23.30;81.70;;;;;;5048596;28;20448;-56
2021/05/31 10:26:04;;;;;;;4.43;3.57;;;23.10;79.20;;;;;;5052177;28;20460;-55
2021/05/31 10:28:33;;;;;;;4.20;3.23;;;23.00;82.10;;;;;;5052056;28;20507;-56
2021/05/31 10:31:01;;;;;;;3.00;2.70;;;23.50;73.40;;;;;;5052271;28;20829;-56
2021/05/31 10:33:29;;;;;;;3.17;2.90;;;24.30;75.20;;;;;;5050966;28;20459;-55
2021/05/31 10:36:07;;;;;;;3.10;2.73;;;24.30;76.90;;;;;;5050752;28;20439;-55
2021/05/31 10:38:37;;;;;;;3.77;2.97;;;24.60;81.20;;;;;;5051192;28;20436;-56
2021/05/31 10:41:11;;;;;;;3.93;3.20;;;24.40;72.50;;;;;;5051200;28;20447;-55
2021/05/31 10:43:43;;;;;;;3.83;2.70;;;23.80;75.60;;;;;;5050841;28;20972;-55
2021/05/31 10:46:15;;;;;;;3.20;2.90;;;23.80;80.40;;;;;;5050988;28;20475;-55
2021/05/31 10:48:44;;;;;;;4.03;2.90;;;23.30;80.80;;;;;;5051234;28;20898;-56
2021/05/31 10:51:16;;;;;;;3.95;3.00;;;23.00;77.10;;;;;;5050771;28;20439;-55
2021/05/31 10:53:48;;;;;;;3.20;2.70;;;23.70;78.70;;;;;;5046276;28;20216;-55
2021/05/31 10:56:25;;;;;;;2.30;2.20;;;22.70;80.10;;;;;;5050358;28;20463;-55
2021/05/31 10:58:56;;;;;;;4.67;2.67;;;23.00;79.80;;;;;;5046614;28;20819;-55
2021/05/31 11:01:37;;;;;;;3.63;2.83;;;22.80;76.80;;;;;;5049831;28;20957;-55
2021/05/31 11:04:07;;;;;;;3.30;2.80;;;22.50;76.60;;;;;;5050262;28;20956;-55
2021/05/31 11:06:41;;;;;;;3.23;2.63;;;22.40;79.20;;;;;;5050474;28;20480;-55
2021/05/31 11:09:12;;;;;;;2.93;2.50;;;22.50;83.30;;;;;;5050678;28;20888;-56
2021/05/31 11:11:41;;;;;;;3.53;2.63;;;22.20;78.30;;;;;;5050810;28;20455;-55
2021/05/31 11:14:09;;;;;;;4.83;2.60;;;22.10;79.90;;;;;;5050322;28;20447;-56
2021/05/31 11:16:50;;;;;;;3.07;2.50;;;22.10;84.40;;;;;;5050497;28;20455;-55
2021/05/31 11:19:16;;;;;;;5.23;2.33;;;22.00;77.70;;;;;;5049790;28;20854;-54
2021/05/31 11:21:45;;;;;;;3.00;2.70;;;22.30;80.70;;;;;;5050604;28;20451;-55
2021/05/31 11:24:14;;;;;;;3.40;2.90;;;22.30;80.50;;;;;;5049843;28;20905;-55
2021/05/31 11:26:43;;;;;;;2.70;2.47;;;22.60;80.40;;;;;;5050115;28;20502;-55
2021/05/31 11:29:12;;;;;;;3.00;2.80;;;22.40;80.80;;;;;;5051433;28;20479;-55
2021/05/31 11:31:40;;;;;;;2.77;2.57;;;22.40;80.70;;;;;;5051412;28;20487;-55
2021/05/31 11:34:07;;;;;;;4.90;2.73;;;22.10;80.80;;;;;;5051045;28;20961;-55
2021/05/31 11:36:36;;;;;;;3.90;2.80;;;21.60;80.00;;;;;;5051337;28;21011;-55
2021/05/31 11:39:07;;;;;;;2.50;2.30;;;21.60;77.80;;;;;;5051367;28;20448;-55
2021/05/31 11:41:40;;;;;;;3.10;2.70;;;21.80;81.10;;;;;;5051564;28;20452;-55
2021/05/31 11:44:09;;;;;;;4.07;3.67;;;21.90;78.20;;;;;;5051037;28;20597;-55
2021/05/31 11:46:46;;;;;;;3.83;2.63;;;22.30;82.70;;;;;;5051256;28;20834;-55
2021/05/31 11:49:13;;;;;;;2.60;2.40;;;22.00;81.10;;;;;;5051478;28;20915;-55
2021/05/31 11:51:39;;;;;;;2.60;2.40;;;22.00;82.20;;;;;;5051353;28;20448;-56
2021/05/31 11:54:06;;;;;;;5.67;2.50;;;21.80;82.60;;;;;;5050523;28;20455;-55
2021/05/31 11:56:36;;;;;;;5.03;2.60;;;21.70;78.20;;;;;;5060052;28;20471;-55
2021/05/31 11:59:07;;;;;;;3.97;2.53;;;21.30;78.90;;;;;;5068310;28;20471;-55
2021/05/31 12:01:34;;;;;;;3.10;2.47;;;21.50;74.40;;;;;;5051480;28;20452;-56
2021/05/31 12:04:00;;;;;;;2.37;2.13;;;21.80;80.00;;;;;;5051014;28;20447;-55
2021/05/31 12:06:27;;;;;;;2.80;2.40;;;21.80;81.90;;;;;;5050954;28;20475;-55
2021/05/31 12:08:54;;;;;;;3.83;2.33;;;21.90;82.40;;;;;;5051099;28;20505;-60
2021/05/31 12:11:25;;;;;;;6.40;2.30;;;22.00;77.70;;;;;;5053931;28;20455;-55
2021/05/31 12:14:02;;;;;;;3.90;2.40;;;21.90;78.50;;;;;;5052334;28;20451;-55
2021/05/31 12:16:28;;;;;;;3.63;2.50;;;22.20;77.90;;;;;;5048977;28;20528;-55
2021/05/31 12:18:55;;;;;;;2.33;2.10;;;22.40;78.00;;;;;;5051275;28;20451;-55
2021/05/31 12:21:22;;;;;;;2.40;2.20;;;22.00;79.60;;;;;;5051267;28;20574;-55
2021/05/31 12:23:50;;;;;;;2.53;2.33;;;21.90;81.50;;;;;;5052904;28;20451;-55
2021/05/31 12:26:21;;;;;;;2.63;2.17;;;21.90;81.10;;;;;;5053466;28;20470;-55
2021/05/31 12:28:52;;;;;;;2.60;2.40;;;21.80;79.90;;;;;;5053880;28;20475;-54
2021/05/31 12:31:21;;;;;;;3.40;2.47;;;21.60;77.60;;;;;;5053651;28;20505;-56
2021/05/31 12:33:57;;;;;;;3.27;2.50;;;21.50;77.80;;;;;;5053105;28;20481;-56
2021/05/31 12:36:24;;;;;;;3.13;2.10;;;21.40;77.80;;;;;;5053388;28;20506;-55
2021/05/31 12:38:50;;;;;;;5.20;1.90;;;21.60;76.90;;;;;;5053706;28;20443;-54
2021/05/31 12:41:17;;;;;;;3.07;1.80;;;21.40;77.30;;;;;;5053971;28;20866;-55
2021/05/31 12:43:44;;;;;;;2.10;2.00;;;21.30;75.70;;;;;;5053704;28;20937;-54
2021/05/31 12:46:17;;;;;;;3.17;2.00;;;21.20;73.70;;;;;;5053278;28;20558;-55
2021/05/31 12:48:51;;;;;;;5.00;1.90;;;21.50;74.30;;;;;;5053014;28;20517;-55
2021/05/31 12:51:18;;;;;;;2.70;2.07;;;21.80;79.40;;;;;;5053415;28;20564;-55
2021/05/31 12:53:45;;;;;;;2.73;1.60;;;21.60;74.50;;;;;;5053308;28;20998;-55
2021/05/31 12:56:12;;;;;;;2.73;2.33;;;21.70;75.40;;;;;;5053198;28;20471;-56
2021/05/31 12:58:39;;;;;;;2.00;1.90;;;21.90;80.10;;;;;;5053169;28;20439;-55
2021/05/31 13:01:05;;;;;;;2.23;1.77;;;22.00;76.80;;;;;;5053206;28;20813;-55
2021/05/31 13:03:33;;;;;;;1.93;1.63;;;21.90;75.90;;;;;;5053095;28;20971;-55
2021/05/31 13:06:03;;;;;;;3.20;2.10;;;21.80;75.20;;;;;;5052914;28;20516;-55
2021/05/31 13:08:38;;;;;;;2.20;1.70;;;21.40;72.10;;;;;;5053402;28;20444;-55